sensor_id;sensor_type;location;lat;lon;timestamp;P1;durP1;ratioP1;P2;durP2;ratioP2
10902;SDS011;5504;47.312;11.060;2022-08-19T00:00:42;4.07;;;3.63;;
10902;SDS011;5504;47.312;11.060;2022-08-19T00:03:07;5.27;;;3.80;;
10902;SDS011;5504;47.312;11.060;2022-08-19T00:05:33;4.60;;;3.80;;
10902;SDS011;5504;47.312;11.060;2022-08-19T00:07:59;3.93;;;3.53;;
10902;SDS011;5504;47.312;11.060;2022-08-19T00:10:25;4.93;;;3.87;;
10902;SDS011;5504;47.312;11.060;2022-08-19T00:12:51;5.77;;;3.80;;
10902;SDS011;5504;47.312;11.060;2022-08-19T00:15:18;4.37;;;3.53;;
10902;SDS011;5504;47.312;11.060;2022-08-19T00:17:46;3.83;;;3.53;;
10902;SDS011;5504;47.312;11.060;2022-08-19T00:20:13;5.57;;;3.50;;
10902;SDS011;5504;47.312;11.060;2022-08-19T00:22:42;4.73;;;3.60;;
10902;SDS011;5504;47.312;11.060;2022-08-19T00:25:09;4.00;;;3.60;;
10902;SDS011;5504;47.312;11.060;2022-08-19T00:27:35;4.13;;;3.43;;
10902;SDS011;5504;47.312;11.060;2022-08-19T00:30:02;3.90;;;3.20;;
10902;SDS011;5504;47.312;11.060;2022-08-19T00:32:30;4.37;;;3.97;;
10902;SDS011;5504;47.312;11.060;2022-08-19T00:34:55;4.90;;;3.80;;
10902;SDS011;5504;47.312;11.060;2022-08-19T00:37:22;5.27;;;3.70;;
10902;SDS011;5504;47.312;11.060;2022-08-19T00:39:49;4.10;;;3.50;;
10902;SDS011;5504;47.312;11.060;2022-08-19T00:42:16;3.93;;;3.40;;
10902;SDS011;5504;47.312;11.060;2022-08-19T00:44:43;3.87;;;3.47;;
10902;SDS011;5504;47.312;11.060;2022-08-19T00:47:09;4.27;;;3.80;;
10902;SDS011;5504;47.312;11.060;2022-08-19T00:49:57;4.00;;;3.60;;
10902;SDS011;5504;47.312;11.060;2022-08-19T00:52:24;4.73;;;3.80;;
10902;SDS011;5504;47.312;11.060;2022-08-19T00:54:57;4.60;;;3.60;;
10902;SDS011;5504;47.312;11.060;2022-08-19T00:57:30;4.10;;;3.70;;
10902;SDS011;5504;47.312;11.060;2022-08-19T01:00:00;5.30;;;4.00;;
10902;SDS011;5504;47.312;11.060;2022-08-19T01:02:27;4.33;;;3.80;;
10902;SDS011;5504;47.312;11.060;2022-08-19T01:04:54;4.37;;;3.80;;
10902;SDS011;5504;47.312;11.060;2022-08-19T01:07:20;4.60;;;4.17;;
10902;SDS011;5504;47.312;11.060;2022-08-19T01:09:46;5.53;;;4.40;;
10902;SDS011;5504;47.312;11.060;2022-08-19T01:12:12;4.77;;;4.20;;
10902;SDS011;5504;47.312;11.060;2022-08-19T01:14:39;6.10;;;4.43;;
10902;SDS011;5504;47.312;11.060;2022-08-19T01:17:06;4.60;;;3.93;;
10902;SDS011;5504;47.312;11.060;2022-08-19T01:19:39;6.03;;;4.00;;
10902;SDS011;5504;47.312;11.060;2022-08-19T01:24:39;5.87;;;4.23;;
10902;SDS011;5504;47.312;11.060;2022-08-19T01:27:06;5.53;;;3.90;;
10902;SDS011;5504;47.312;11.060;2022-08-19T01:29:32;6.17;;;3.90;;
10902;SDS011;5504;47.312;11.060;2022-08-19T01:31:58;4.50;;;4.03;;
10902;SDS011;5504;47.312;11.060;2022-08-19T01:34:25;4.10;;;3.73;;
10902;SDS011;5504;47.312;11.060;2022-08-19T01:36:51;4.13;;;3.30;;
10902;SDS011;5504;47.312;11.060;2022-08-19T01:39:18;5.07;;;4.20;;
10902;SDS011;5504;47.312;11.060;2022-08-19T01:41:46;4.50;;;3.60;;
10902;SDS011;5504;47.312;11.060;2022-08-19T01:44:13;4.07;;;3.73;;
10902;SDS011;5504;47.312;11.060;2022-08-19T01:46:39;4.07;;;3.63;;
10902;SDS011;5504;47.312;11.060;2022-08-19T01:49:07;5.83;;;3.87;;
10902;SDS011;5504;47.312;11.060;2022-08-19T01:51:33;5.60;;;3.90;;
10902;SDS011;5504;47.312;11.060;2022-08-19T01:53:59;4.10;;;3.70;;
10902;SDS011;5504;47.312;11.060;2022-08-19T01:56:25;3.90;;;3.50;;
10902;SDS011;5504;47.312;11.060;2022-08-19T01:58:53;4.77;;;3.90;;
10902;SDS011;5504;47.312;11.060;2022-08-19T02:01:23;5.33;;;3.90;;
10902;SDS011;5504;47.312;11.060;2022-08-19T02:03:49;4.00;;;3.60;;
10902;SDS011;5504;47.312;11.060;2022-08-19T02:06:15;4.13;;;3.67;;
10902;SDS011;5504;47.312;11.060;2022-08-19T02:08:41;5.63;;;3.73;;
10902;SDS011;5504;47.312;11.060;2022-08-19T02:11:17;6.27;;;4.03;;
10902;SDS011;5504;47.312;11.060;2022-08-19T02:13:47;4.10;;;3.70;;
10902;SDS011;5504;47.312;11.060;2022-08-19T02:16:14;4.37;;;3.67;;
10902;SDS011;5504;47.312;11.060;2022-08-19T02:18:41;5.53;;;4.03;;
10902;SDS011;5504;47.312;11.060;2022-08-19T02:21:07;4.20;;;3.80;;
10902;SDS011;5504;47.312;11.060;2022-08-19T02:23:33;5.67;;;4.07;;
10902;SDS011;5504;47.312;11.060;2022-08-19T02:25:58;4.70;;;3.87;;
10902;SDS011;5504;47.312;11.060;2022-08-19T02:28:24;4.17;;;3.67;;
10902;SDS011;5504;47.312;11.060;2022-08-19T02:30:50;4.23;;;3.57;;
10902;SDS011;5504;47.312;11.060;2022-08-19T02:33:16;4.20;;;3.80;;
10902;SDS011;5504;47.312;11.060;2022-08-19T02:35:42;4.03;;;3.73;;
10902;SDS011;5504;47.312;11.060;2022-08-19T02:38:12;5.10;;;3.70;;
10902;SDS011;5504;47.312;11.060;2022-08-19T02:41:07;4.70;;;4.23;;
10902;SDS011;5504;47.312;11.060;2022-08-19T02:43:39;5.23;;;3.73;;
10902;SDS011;5504;47.312;11.060;2022-08-19T02:46:20;4.50;;;3.60;;
10902;SDS011;5504;47.312;11.060;2022-08-19T02:48:49;4.13;;;3.70;;
10902;SDS011;5504;47.312;11.060;2022-08-19T02:51:17;4.57;;;3.87;;
10902;SDS011;5504;47.312;11.060;2022-08-19T02:53:45;5.13;;;3.70;;
10902;SDS011;5504;47.312;11.060;2022-08-19T02:56:11;6.60;;;4.23;;
10902;SDS011;5504;47.312;11.060;2022-08-19T02:58:37;4.80;;;4.00;;
10902;SDS011;5504;47.312;11.060;2022-08-19T03:01:03;6.40;;;3.77;;
10902;SDS011;5504;47.312;11.060;2022-08-19T03:03:29;4.43;;;3.70;;
10902;SDS011;5504;47.312;11.060;2022-08-19T03:06:08;3.87;;;3.37;;
10902;SDS011;5504;47.312;11.060;2022-08-19T03:08:38;4.87;;;3.47;;
10902;SDS011;5504;47.312;11.060;2022-08-19T03:11:05;4.10;;;3.70;;
10902;SDS011;5504;47.312;11.060;2022-08-19T03:13:36;5.57;;;3.50;;
10902;SDS011;5504;47.312;11.060;2022-08-19T03:16:04;5.10;;;3.50;;
10902;SDS011;5504;47.312;11.060;2022-08-19T03:18:30;6.20;;;3.90;;
10902;SDS011;5504;47.312;11.060;2022-08-19T03:20:56;4.50;;;4.10;;
10902;SDS011;5504;47.312;11.060;2022-08-19T03:23:22;4.40;;;4.00;;
10902;SDS011;5504;47.312;11.060;2022-08-19T03:25:49;4.57;;;3.60;;
10902;SDS011;5504;47.312;11.060;2022-08-19T03:28:16;4.13;;;3.73;;
10902;SDS011;5504;47.312;11.060;2022-08-19T03:30:43;4.03;;;3.63;;
10902;SDS011;5504;47.312;11.060;2022-08-19T03:33:24;5.80;;;3.90;;
10902;SDS011;5504;47.312;11.060;2022-08-19T03:38:34;4.40;;;3.90;;
10902;SDS011;5504;47.312;11.060;2022-08-19T03:41:06;4.00;;;3.60;;
10902;SDS011;5504;47.312;11.060;2022-08-19T03:43:38;4.23;;;3.83;;
10902;SDS011;5504;47.312;11.060;2022-08-19T03:46:15;4.00;;;3.60;;
10902;SDS011;5504;47.312;11.060;2022-08-19T03:48:43;4.17;;;3.77;;
10902;SDS011;5504;47.312;11.060;2022-08-19T03:51:19;4.30;;;3.70;;
10902;SDS011;5504;47.312;11.060;2022-08-19T03:53:49;5.17;;;4.00;;
10902;SDS011;5504;47.312;11.060;2022-08-19T03:56:16;4.43;;;4.00;;
10902;SDS011;5504;47.312;11.060;2022-08-19T03:58:42;4.37;;;3.60;;
10902;SDS011;5504;47.312;11.060;2022-08-19T04:01:10;5.23;;;3.80;;
10902;SDS011;5504;47.312;11.060;2022-08-19T04:03:37;4.27;;;3.87;;
10902;SDS011;5504;47.312;11.060;2022-08-19T04:06:20;6.50;;;4.00;;
10902;SDS011;5504;47.312;11.060;2022-08-19T04:08:51;4.43;;;4.00;;
10902;SDS011;5504;47.312;11.060;2022-08-19T04:11:20;4.93;;;4.00;;
10902;SDS011;5504;47.312;11.060;2022-08-19T04:13:50;4.13;;;3.73;;
10902;SDS011;5504;47.312;11.060;2022-08-19T04:16:26;4.63;;;3.73;;
10902;SDS011;5504;47.312;11.060;2022-08-19T04:18:53;4.23;;;3.83;;
10902;SDS011;5504;47.312;11.060;2022-08-19T04:21:22;4.33;;;3.93;;
10902;SDS011;5504;47.312;11.060;2022-08-19T04:23:49;4.23;;;3.83;;
10902;SDS011;5504;47.312;11.060;2022-08-19T04:26:16;5.40;;;3.80;;
10902;SDS011;5504;47.312;11.060;2022-08-19T04:28:43;3.97;;;3.63;;
10902;SDS011;5504;47.312;11.060;2022-08-19T04:31:14;4.63;;;3.90;;
10902;SDS011;5504;47.312;11.060;2022-08-19T04:33:41;4.27;;;3.87;;
10902;SDS011;5504;47.312;11.060;2022-08-19T04:36:07;4.70;;;4.00;;
10902;SDS011;5504;47.312;11.060;2022-08-19T04:38:40;4.57;;;3.80;;
10902;SDS011;5504;47.312;11.060;2022-08-19T04:41:05;5.10;;;3.80;;
10902;SDS011;5504;47.312;11.060;2022-08-19T04:43:49;4.50;;;3.83;;
10902;SDS011;5504;47.312;11.060;2022-08-19T04:46:15;4.73;;;3.73;;
10902;SDS011;5504;47.312;11.060;2022-08-19T04:48:42;4.60;;;4.00;;
10902;SDS011;5504;47.312;11.060;2022-08-19T04:51:10;3.97;;;3.60;;
10902;SDS011;5504;47.312;11.060;2022-08-19T04:53:39;4.50;;;4.10;;
10902;SDS011;5504;47.312;11.060;2022-08-19T04:56:10;4.23;;;3.60;;
10902;SDS011;5504;47.312;11.060;2022-08-19T04:58:38;4.53;;;3.60;;
10902;SDS011;5504;47.312;11.060;2022-08-19T05:01:07;4.10;;;3.70;;
10902;SDS011;5504;47.312;11.060;2022-08-19T05:03:36;3.63;;;3.30;;
10902;SDS011;5504;47.312;11.060;2022-08-19T05:06:06;4.20;;;3.43;;
10902;SDS011;5504;47.312;11.060;2022-08-19T05:08:34;3.97;;;3.60;;
10902;SDS011;5504;47.312;11.060;2022-08-19T05:11:01;6.20;;;4.00;;
10902;SDS011;5504;47.312;11.060;2022-08-19T05:13:33;4.00;;;3.70;;
10902;SDS011;5504;47.312;11.060;2022-08-19T05:15:59;3.70;;;3.40;;
10902;SDS011;5504;47.312;11.060;2022-08-19T05:18:25;4.60;;;3.57;;
10902;SDS011;5504;47.312;11.060;2022-08-19T05:21:11;5.07;;;3.83;;
10902;SDS011;5504;47.312;11.060;2022-08-19T05:23:57;5.40;;;3.93;;
10902;SDS011;5504;47.312;11.060;2022-08-19T05:26:23;3.97;;;3.57;;
10902;SDS011;5504;47.312;11.060;2022-08-19T05:28:51;4.43;;;3.73;;
10902;SDS011;5504;47.312;11.060;2022-08-19T05:31:18;4.60;;;3.80;;
10902;SDS011;5504;47.312;11.060;2022-08-19T05:33:43;6.90;;;4.27;;
10902;SDS011;5504;47.312;11.060;2022-08-19T05:36:09;6.20;;;4.83;;
10902;SDS011;5504;47.312;11.060;2022-08-19T05:38:36;4.57;;;4.00;;
10902;SDS011;5504;47.312;11.060;2022-08-19T05:41:12;5.17;;;4.10;;
10902;SDS011;5504;47.312;11.060;2022-08-19T05:43:40;5.00;;;4.07;;
10902;SDS011;5504;47.312;11.060;2022-08-19T05:46:06;4.47;;;3.57;;
10902;SDS011;5504;47.312;11.060;2022-08-19T05:48:33;4.20;;;3.80;;
10902;SDS011;5504;47.312;11.060;2022-08-19T05:51:06;4.03;;;3.63;;
10902;SDS011;5504;47.312;11.060;2022-08-19T05:53:33;4.87;;;3.63;;
10902;SDS011;5504;47.312;11.060;2022-08-19T05:56:07;4.00;;;3.67;;
10902;SDS011;5504;47.312;11.060;2022-08-19T05:58:35;4.90;;;3.70;;
10902;SDS011;5504;47.312;11.060;2022-08-19T06:01:02;4.13;;;3.63;;
10902;SDS011;5504;47.312;11.060;2022-08-19T06:03:39;3.93;;;3.60;;
10902;SDS011;5504;47.312;11.060;2022-08-19T06:06:05;4.07;;;3.67;;
10902;SDS011;5504;47.312;11.060;2022-08-19T06:08:33;4.90;;;3.53;;
10902;SDS011;5504;47.312;11.060;2022-08-19T06:13:40;4.43;;;3.70;;
10902;SDS011;5504;47.312;11.060;2022-08-19T06:16:05;3.90;;;3.30;;
10902;SDS011;5504;47.312;11.060;2022-08-19T06:18:31;3.83;;;3.40;;
10902;SDS011;5504;47.312;11.060;2022-08-19T06:20:58;4.93;;;3.87;;
10902;SDS011;5504;47.312;11.060;2022-08-19T06:23:24;6.47;;;4.40;;
10902;SDS011;5504;47.312;11.060;2022-08-19T06:25:50;5.67;;;5.07;;
10902;SDS011;5504;47.312;11.060;2022-08-19T06:28:16;6.10;;;4.93;;
10902;SDS011;5504;47.312;11.060;2022-08-19T06:30:41;5.67;;;5.13;;
10902;SDS011;5504;47.312;11.060;2022-08-19T06:33:07;6.20;;;5.60;;
10902;SDS011;5504;47.312;11.060;2022-08-19T06:35:37;6.07;;;5.03;;
10902;SDS011;5504;47.312;11.060;2022-08-19T06:38:04;5.67;;;5.00;;
10902;SDS011;5504;47.312;11.060;2022-08-19T06:40:30;6.40;;;4.70;;
10902;SDS011;5504;47.312;11.060;2022-08-19T06:42:55;5.13;;;4.50;;
10902;SDS011;5504;47.312;11.060;2022-08-19T06:45:23;5.83;;;4.57;;
10902;SDS011;5504;47.312;11.060;2022-08-19T06:47:50;5.87;;;4.47;;
10902;SDS011;5504;47.312;11.060;2022-08-19T06:50:20;4.57;;;4.10;;
10902;SDS011;5504;47.312;11.060;2022-08-19T06:52:47;5.13;;;4.20;;
10902;SDS011;5504;47.312;11.060;2022-08-19T06:55:13;4.63;;;3.90;;
10902;SDS011;5504;47.312;11.060;2022-08-19T06:57:39;5.27;;;4.10;;
10902;SDS011;5504;47.312;11.060;2022-08-19T07:00:05;4.90;;;4.10;;
10902;SDS011;5504;47.312;11.060;2022-08-19T07:02:36;5.60;;;4.80;;
10902;SDS011;5504;47.312;11.060;2022-08-19T07:05:02;4.33;;;3.93;;
10902;SDS011;5504;47.312;11.060;2022-08-19T07:07:28;5.57;;;4.10;;
10902;SDS011;5504;47.312;11.060;2022-08-19T07:09:54;4.70;;;4.30;;
10902;SDS011;5504;47.312;11.060;2022-08-19T07:12:20;6.38;;;4.40;;
10902;SDS011;5504;47.312;11.060;2022-08-19T07:14:45;5.10;;;4.03;;
10902;SDS011;5504;47.312;11.060;2022-08-19T07:17:14;4.10;;;3.70;;
10902;SDS011;5504;47.312;11.060;2022-08-19T07:19:40;4.80;;;3.90;;
10902;SDS011;5504;47.312;11.060;2022-08-19T07:22:07;4.40;;;4.00;;
10902;SDS011;5504;47.312;11.060;2022-08-19T07:24:34;4.70;;;4.30;;
10902;SDS011;5504;47.312;11.060;2022-08-19T07:27:01;5.40;;;4.00;;
10902;SDS011;5504;47.312;11.060;2022-08-19T07:29:30;4.32;;;3.92;;
10902;SDS011;5504;47.312;11.060;2022-08-19T07:31:59;5.50;;;4.50;;
10902;SDS011;5504;47.312;11.060;2022-08-19T07:34:26;5.15;;;4.20;;
10902;SDS011;5504;47.312;11.060;2022-08-19T07:36:54;6.87;;;4.57;;
10902;SDS011;5504;47.312;11.060;2022-08-19T07:39:28;8.63;;;5.30;;
10902;SDS011;5504;47.312;11.060;2022-08-19T07:41:56;9.43;;;5.25;;
10902;SDS011;5504;47.312;11.060;2022-08-19T07:44:23;6.53;;;5.33;;
10902;SDS011;5504;47.312;11.060;2022-08-19T07:46:50;6.50;;;5.73;;
10902;SDS011;5504;47.312;11.060;2022-08-19T07:49:18;10.13;;;5.70;;
10902;SDS011;5504;47.312;11.060;2022-08-19T07:51:45;6.33;;;5.13;;
10902;SDS011;5504;47.312;11.060;2022-08-19T07:54:17;6.27;;;5.43;;
10902;SDS011;5504;47.312;11.060;2022-08-19T07:56:45;6.80;;;5.60;;
10902;SDS011;5504;47.312;11.060;2022-08-19T07:59:11;8.67;;;5.37;;
10902;SDS011;5504;47.312;11.060;2022-08-19T08:01:37;8.63;;;5.97;;
10902;SDS011;5504;47.312;11.060;2022-08-19T08:04:05;53.13;;;36.20;;
10902;SDS011;5504;47.312;11.060;2022-08-19T08:06:51;14.33;;;11.77;;
10902;SDS011;5504;47.312;11.060;2022-08-19T08:09:37;6.95;;;6.03;;
10902;SDS011;5504;47.312;11.060;2022-08-19T08:12:07;6.47;;;5.82;;
10902;SDS011;5504;47.312;11.060;2022-08-19T08:14:47;7.63;;;6.35;;
10902;SDS011;5504;47.312;11.060;2022-08-19T08:17:15;15.45;;;12.40;;
10902;SDS011;5504;47.312;11.060;2022-08-19T08:19:42;20.50;;;15.98;;
10902;SDS011;5504;47.312;11.060;2022-08-19T08:22:10;7.55;;;5.28;;
10902;SDS011;5504;47.312;11.060;2022-08-19T08:25:06;6.93;;;4.90;;
10902;SDS011;5504;47.312;11.060;2022-08-19T08:27:37;5.03;;;4.35;;
10902;SDS011;5504;47.312;11.060;2022-08-19T08:30:09;6.70;;;4.97;;
10902;SDS011;5504;47.312;11.060;2022-08-19T08:32:36;4.90;;;4.10;;
10902;SDS011;5504;47.312;11.060;2022-08-19T08:35:08;4.90;;;4.40;;
10902;SDS011;5504;47.312;11.060;2022-08-19T08:37:37;4.70;;;4.18;;
10902;SDS011;5504;47.312;11.060;2022-08-19T08:40:05;4.13;;;3.83;;
10902;SDS011;5504;47.312;11.060;2022-08-19T08:43:09;4.72;;;4.20;;
10902;SDS011;5504;47.312;11.060;2022-08-19T08:48:42;5.28;;;4.18;;
10902;SDS011;5504;47.312;11.060;2022-08-19T08:51:20;4.65;;;4.22;;
10902;SDS011;5504;47.312;11.060;2022-08-19T08:53:53;4.53;;;4.13;;
10902;SDS011;5504;47.312;11.060;2022-08-19T08:56:20;4.88;;;4.10;;
10902;SDS011;5504;47.312;11.060;2022-08-19T09:01:21;5.05;;;4.55;;
10902;SDS011;5504;47.312;11.060;2022-08-19T09:03:47;4.18;;;3.78;;
10902;SDS011;5504;47.312;11.060;2022-08-19T09:09:05;5.65;;;4.22;;
10902;SDS011;5504;47.312;11.060;2022-08-19T09:11:56;4.68;;;3.90;;
10902;SDS011;5504;47.312;11.060;2022-08-19T09:17:23;3.88;;;3.50;;
10902;SDS011;5504;47.312;11.060;2022-08-19T09:20:03;3.50;;;3.20;;
10902;SDS011;5504;47.312;11.060;2022-08-19T09:22:32;4.05;;;3.60;;
10902;SDS011;5504;47.312;11.060;2022-08-19T09:24:59;4.82;;;4.10;;
10902;SDS011;5504;47.312;11.060;2022-08-19T09:27:25;4.97;;;4.57;;
10902;SDS011;5504;47.312;11.060;2022-08-19T09:29:52;5.10;;;4.60;;
10902;SDS011;5504;47.312;11.060;2022-08-19T09:32:19;5.55;;;4.30;;
10902;SDS011;5504;47.312;11.060;2022-08-19T09:34:45;4.40;;;4.00;;
10902;SDS011;5504;47.312;11.060;2022-08-19T09:37:11;5.45;;;3.70;;
10902;SDS011;5504;47.312;11.060;2022-08-19T09:39:37;4.43;;;3.80;;
10902;SDS011;5504;47.312;11.060;2022-08-19T09:42:05;3.78;;;3.47;;
10902;SDS011;5504;47.312;11.060;2022-08-19T09:44:36;6.07;;;3.90;;
10902;SDS011;5504;47.312;11.060;2022-08-19T09:47:05;3.72;;;3.35;;
10902;SDS011;5504;47.312;11.060;2022-08-19T09:49:32;4.40;;;3.45;;
10902;SDS011;5504;47.312;11.060;2022-08-19T09:51:58;3.60;;;3.30;;
10902;SDS011;5504;47.312;11.060;2022-08-19T09:54:24;3.40;;;3.10;;
10902;SDS011;5504;47.312;11.060;2022-08-19T09:56:51;4.65;;;3.08;;
10902;SDS011;5504;47.312;11.060;2022-08-19T09:59:20;3.42;;;2.92;;
10902;SDS011;5504;47.312;11.060;2022-08-19T10:01:46;3.72;;;2.95;;
10902;SDS011;5504;47.312;11.060;2022-08-19T10:04:12;3.40;;;3.10;;
10902;SDS011;5504;47.312;11.060;2022-08-19T10:06:39;4.20;;;3.17;;
10902;SDS011;5504;47.312;11.060;2022-08-19T10:09:08;4.35;;;2.92;;
10902;SDS011;5504;47.312;11.060;2022-08-19T10:11:35;3.35;;;3.05;;
10902;SDS011;5504;47.312;11.060;2022-08-19T10:14:04;2.92;;;2.72;;
10902;SDS011;5504;47.312;11.060;2022-08-19T10:16:33;4.72;;;3.35;;
10902;SDS011;5504;47.312;11.060;2022-08-19T10:19:01;3.30;;;3.00;;
10902;SDS011;5504;47.312;11.060;2022-08-19T10:21:31;3.00;;;2.70;;
10902;SDS011;5504;47.312;11.060;2022-08-19T10:23:59;3.65;;;2.63;;
10902;SDS011;5504;47.312;11.060;2022-08-19T10:26:29;3.20;;;2.50;;
10902;SDS011;5504;47.312;11.060;2022-08-19T10:28:58;2.90;;;2.70;;
10902;SDS011;5504;47.312;11.060;2022-08-19T10:31:26;2.70;;;2.30;;
10902;SDS011;5504;47.312;11.060;2022-08-19T10:33:54;2.50;;;2.30;;
10902;SDS011;5504;47.312;11.060;2022-08-19T10:36:23;2.83;;;2.47;;
10902;SDS011;5504;47.312;11.060;2022-08-19T10:38:51;2.60;;;2.40;;
10902;SDS011;5504;47.312;11.060;2022-08-19T10:41:23;3.55;;;3.25;;
10902;SDS011;5504;47.312;11.060;2022-08-19T10:43:54;3.35;;;3.05;;
10902;SDS011;5504;47.312;11.060;2022-08-19T10:46:23;2.03;;;1.88;;
10902;SDS011;5504;47.312;11.060;2022-08-19T10:48:50;2.60;;;2.40;;
10902;SDS011;5504;47.312;11.060;2022-08-19T10:51:16;2.72;;;2.03;;
10902;SDS011;5504;47.312;11.060;2022-08-19T10:54:01;2.95;;;2.20;;
10902;SDS011;5504;47.312;11.060;2022-08-19T10:56:28;2.90;;;1.85;;
10902;SDS011;5504;47.312;11.060;2022-08-19T10:59:13;1.80;;;1.70;;
10902;SDS011;5504;47.312;11.060;2022-08-19T11:01:41;1.90;;;1.80;;
10902;SDS011;5504;47.312;11.060;2022-08-19T11:04:09;3.10;;;1.88;;
10902;SDS011;5504;47.312;11.060;2022-08-19T11:06:39;2.35;;;1.65;;
10902;SDS011;5504;47.312;11.060;2022-08-19T11:09:06;1.63;;;1.50;;
10902;SDS011;5504;47.312;11.060;2022-08-19T11:11:33;2.08;;;1.50;;
10902;SDS011;5504;47.312;11.060;2022-08-19T11:14:04;1.88;;;1.45;;
10902;SDS011;5504;47.312;11.060;2022-08-19T11:16:30;1.48;;;1.35;;
10902;SDS011;5504;47.312;11.060;2022-08-19T11:18:57;1.40;;;1.30;;
10902;SDS011;5504;47.312;11.060;2022-08-19T11:21:27;1.60;;;1.50;;
10902;SDS011;5504;47.312;11.060;2022-08-19T11:23:57;2.03;;;1.20;;
10902;SDS011;5504;47.312;11.060;2022-08-19T11:26:25;2.35;;;1.27;;
10902;SDS011;5504;47.312;11.060;2022-08-19T11:28:52;1.30;;;1.20;;
10902;SDS011;5504;47.312;11.060;2022-08-19T11:31:23;2.42;;;1.30;;
10902;SDS011;5504;47.312;11.060;2022-08-19T11:33:50;1.52;;;1.20;;
10902;SDS011;5504;47.312;11.060;2022-08-19T11:36:18;1.92;;;1.20;;
10902;SDS011;5504;47.312;11.060;2022-08-19T11:38:46;1.45;;;1.05;;
10902;SDS011;5504;47.312;11.060;2022-08-19T11:41:13;1.52;;;1.23;;
10902;SDS011;5504;47.312;11.060;2022-08-19T11:43:41;1.52;;;1.10;;
10902;SDS011;5504;47.312;11.060;2022-08-19T11:46:07;1.40;;;1.30;;
10902;SDS011;5504;47.312;11.060;2022-08-19T11:48:35;1.52;;;1.02;;
10902;SDS011;5504;47.312;11.060;2022-08-19T11:51:06;1.35;;;1.10;;
10902;SDS011;5504;47.312;11.060;2022-08-19T11:53:34;1.60;;;1.10;;
10902;SDS011;5504;47.312;11.060;2022-08-19T11:56:02;1.95;;;1.10;;
10902;SDS011;5504;47.312;11.060;2022-08-19T11:58:28;1.17;;;1.08;;
10902;SDS011;5504;47.312;11.060;2022-08-19T12:00:55;1.30;;;1.10;;
10902;SDS011;5504;47.312;11.060;2022-08-19T12:03:21;1.52;;;1.10;;
10902;SDS011;5504;47.312;11.060;2022-08-19T12:05:47;2.50;;;1.20;;
10902;SDS011;5504;47.312;11.060;2022-08-19T12:08:14;1.48;;;1.10;;
10902;SDS011;5504;47.312;11.060;2022-08-19T12:10:41;1.45;;;1.10;;
10902;SDS011;5504;47.312;11.060;2022-08-19T12:13:08;1.20;;;0.98;;
10902;SDS011;5504;47.312;11.060;2022-08-19T12:15:35;1.60;;;0.90;;
10902;SDS011;5504;47.312;11.060;2022-08-19T12:18:03;1.42;;;1.00;;
10902;SDS011;5504;47.312;11.060;2022-08-19T12:20:29;1.80;;;1.20;;
10902;SDS011;5504;47.312;11.060;2022-08-19T12:22:55;2.33;;;1.60;;
10902;SDS011;5504;47.312;11.060;2022-08-19T12:25:21;1.52;;;1.40;;
10902;SDS011;5504;47.312;11.060;2022-08-19T12:27:46;3.85;;;1.60;;
10902;SDS011;5504;47.312;11.060;2022-08-19T12:30:12;1.65;;;1.52;;
10902;SDS011;5504;47.312;11.060;2022-08-19T12:32:39;2.47;;;1.60;;
10902;SDS011;5504;47.312;11.060;2022-08-19T12:35:05;1.88;;;1.50;;
10902;SDS011;5504;47.312;11.060;2022-08-19T12:37:34;1.02;;;0.90;;
10902;SDS011;5504;47.312;11.060;2022-08-19T12:39:59;1.10;;;1.00;;
10902;SDS011;5504;47.312;11.060;2022-08-19T12:42:25;0.93;;;0.80;;
10902;SDS011;5504;47.312;11.060;2022-08-19T12:44:51;1.10;;;1.00;;
10902;SDS011;5504;47.312;11.060;2022-08-19T12:47:17;0.80;;;0.80;;
10902;SDS011;5504;47.312;11.060;2022-08-19T12:49:43;1.17;;;1.00;;
10902;SDS011;5504;47.312;11.060;2022-08-19T12:52:11;1.10;;;1.00;;
10902;SDS011;5504;47.312;11.060;2022-08-19T12:54:40;1.10;;;0.90;;
10902;SDS011;5504;47.312;11.060;2022-08-19T12:57:08;1.52;;;1.00;;
10902;SDS011;5504;47.312;11.060;2022-08-19T12:59:35;4.68;;;1.65;;
10902;SDS011;5504;47.312;11.060;2022-08-19T13:02:05;3.20;;;1.05;;
10902;SDS011;5504;47.312;11.060;2022-08-19T13:04:32;1.00;;;0.90;;
10902;SDS011;5504;47.312;11.060;2022-08-19T13:07:05;1.45;;;0.90;;
10902;SDS011;5504;47.312;11.060;2022-08-19T13:09:31;1.13;;;1.00;;
10902;SDS011;5504;47.312;11.060;2022-08-19T13:11:57;0.95;;;0.90;;
10902;SDS011;5504;47.312;11.060;2022-08-19T13:14:23;0.90;;;0.80;;
10902;SDS011;5504;47.312;11.060;2022-08-19T13:16:48;1.63;;;1.00;;
10902;SDS011;5504;47.312;11.060;2022-08-19T13:19:14;0.80;;;0.80;;
10902;SDS011;5504;47.312;11.060;2022-08-19T13:21:40;0.93;;;0.93;;
10902;SDS011;5504;47.312;11.060;2022-08-19T13:24:05;2.40;;;1.00;;
10902;SDS011;5504;47.312;11.060;2022-08-19T13:26:31;1.30;;;0.90;;
10902;SDS011;5504;47.312;11.060;2022-08-19T13:28:57;1.00;;;0.90;;
10902;SDS011;5504;47.312;11.060;2022-08-19T13:31:41;1.63;;;0.70;;
10902;SDS011;5504;47.312;11.060;2022-08-19T13:34:35;0.80;;;0.80;;
10902;SDS011;5504;47.312;11.060;2022-08-19T13:37:02;0.88;;;0.80;;
10902;SDS011;5504;47.312;11.060;2022-08-19T13:39:32;0.80;;;0.60;;
10902;SDS011;5504;47.312;11.060;2022-08-19T13:41:59;0.60;;;0.60;;
10902;SDS011;5504;47.312;11.060;2022-08-19T13:44:25;0.57;;;0.52;;
10902;SDS011;5504;47.312;11.060;2022-08-19T13:46:54;1.02;;;0.60;;
10902;SDS011;5504;47.312;11.060;2022-08-19T13:49:27;0.85;;;0.70;;
10902;SDS011;5504;47.312;11.060;2022-08-19T13:51:56;1.27;;;0.60;;
10902;SDS011;5504;47.312;11.060;2022-08-19T13:54:22;0.65;;;0.55;;
10902;SDS011;5504;47.312;11.060;2022-08-19T13:56:48;1.92;;;0.80;;
10902;SDS011;5504;47.312;11.060;2022-08-19T13:59:13;1.20;;;0.68;;
10902;SDS011;5504;47.312;11.060;2022-08-19T14:01:40;1.35;;;0.70;;
10902;SDS011;5504;47.312;11.060;2022-08-19T14:04:06;0.60;;;0.60;;
10902;SDS011;5504;47.312;11.060;2022-08-19T14:06:32;2.15;;;0.65;;
10902;SDS011;5504;47.312;11.060;2022-08-19T14:08:58;2.53;;;0.52;;
10902;SDS011;5504;47.312;11.060;2022-08-19T14:11:26;1.40;;;0.60;;
10902;SDS011;5504;47.312;11.060;2022-08-19T14:13:53;0.73;;;0.40;;
10902;SDS011;5504;47.312;11.060;2022-08-19T14:16:18;1.00;;;0.50;;
10902;SDS011;5504;47.312;11.060;2022-08-19T14:18:44;1.42;;;0.57;;
10902;SDS011;5504;47.312;11.060;2022-08-19T14:21:17;1.27;;;0.55;;
10902;SDS011;5504;47.312;11.060;2022-08-19T14:23:50;0.65;;;0.50;;
10902;SDS011;5504;47.312;11.060;2022-08-19T14:26:16;0.85;;;0.52;;
10902;SDS011;5504;47.312;11.060;2022-08-19T14:28:43;0.73;;;0.70;;
10902;SDS011;5504;47.312;11.060;2022-08-19T14:31:10;2.47;;;0.65;;
10902;SDS011;5504;47.312;11.060;2022-08-19T14:33:38;0.80;;;0.52;;
10902;SDS011;5504;47.312;11.060;2022-08-19T14:36:05;0.57;;;0.57;;
10902;SDS011;5504;47.312;11.060;2022-08-19T14:38:31;1.00;;;0.50;;
10902;SDS011;5504;47.312;11.060;2022-08-19T14:43:47;0.75;;;0.50;;
10902;SDS011;5504;47.312;11.060;2022-08-19T14:46:16;1.05;;;0.50;;
10902;SDS011;5504;47.312;11.060;2022-08-19T14:48:45;1.13;;;0.55;;
10902;SDS011;5504;47.312;11.060;2022-08-19T14:51:11;1.20;;;0.52;;
10902;SDS011;5504;47.312;11.060;2022-08-19T14:53:38;1.30;;;0.60;;
10902;SDS011;5504;47.312;11.060;2022-08-19T14:56:09;0.73;;;0.60;;
10902;SDS011;5504;47.312;11.060;2022-08-19T14:58:36;1.00;;;0.60;;
10902;SDS011;5504;47.312;11.060;2022-08-19T15:01:02;1.02;;;0.60;;
10902;SDS011;5504;47.312;11.060;2022-08-19T15:03:29;0.70;;;0.60;;
10902;SDS011;5504;47.312;11.060;2022-08-19T15:05:56;0.55;;;0.52;;
10902;SDS011;5504;47.312;11.060;2022-08-19T15:08:22;0.75;;;0.60;;
10902;SDS011;5504;47.312;11.060;2022-08-19T15:10:50;0.90;;;0.60;;
10902;SDS011;5504;47.312;11.060;2022-08-19T15:13:17;1.73;;;0.70;;
10902;SDS011;5504;47.312;11.060;2022-08-19T15:15:42;1.30;;;0.60;;
10902;SDS011;5504;47.312;11.060;2022-08-19T15:18:08;0.85;;;0.70;;